createdAt,value
2022-11-06T00:04:20.590Z,85.06
2022-11-06T00:10:43.619Z,85.29
2022-11-06T00:17:03.617Z,85.01
2022-11-06T00:23:26.580Z,84.79
2022-11-06T00:29:46.578Z,85.13
2022-11-06T00:36:09.591Z,85.4
2022-11-06T00:42:29.615Z,85.14
2022-11-06T00:48:52.588Z,85.5
2022-11-06T00:55:12.609Z,85.28
2022-11-06T01:01:35.692Z,85.31
2022-11-06T01:07:55.585Z,85.49
2022-11-06T01:14:18.615Z,84.95
2022-11-06T01:20:38.555Z,84.93
2022-11-06T01:33:21.676Z,85.49
2022-11-06T01:39:44.580Z,85.28
2022-11-06T01:46:04.624Z,85.53
2022-11-06T01:52:27.657Z,85.41
2022-11-06T01:58:47.591Z,85.25
2022-11-06T02:05:10.584Z,85.39
2022-11-06T02:11:30.711Z,85.61
2022-11-06T02:17:53.604Z,85.54
2022-11-06T02:24:13.581Z,85.83
2022-11-06T02:30:36.637Z,86.21
2022-11-06T02:36:56.593Z,86.29
2022-11-06T02:43:19.580Z,86.44
2022-11-06T02:49:39.655Z,86.91
2022-11-06T02:56:02.613Z,86.32
2022-11-06T03:02:22.729Z,86.82
2022-11-06T03:08:45.583Z,87.15
2022-11-06T03:15:05.580Z,87.52
2022-11-06T03:21:28.584Z,87.44
2022-11-06T03:27:48.597Z,87.27
2022-11-06T03:34:11.579Z,87.25
2022-11-06T03:40:31.557Z,87.34
2022-11-06T03:46:54.628Z,87.3
2022-11-06T03:53:14.583Z,87.08
2022-11-06T03:59:37.586Z,86.82
2022-11-06T04:05:57.674Z,86.73
2022-11-06T04:12:20.587Z,86.25
2022-11-06T04:18:40.590Z,86.4
2022-11-06T04:34:50.514Z,86.38
2022-11-06T04:41:10.812Z,86.71
2022-11-06T04:47:33.568Z,87.03
2022-11-06T04:53:53.648Z,87.26
2022-11-06T05:00:16.627Z,86.77
2022-11-06T05:06:36.579Z,87.18
2022-11-06T05:12:59.611Z,86.85
2022-11-06T05:19:19.577Z,86.47
2022-11-06T05:25:42.620Z,86.62
2022-11-06T05:32:02.731Z,86.69
2022-11-06T05:38:25.585Z,86.46
2022-11-06T05:44:45.547Z,86.51
2022-11-06T05:51:08.622Z,86.37
2022-11-06T05:57:28.584Z,85.97
2022-11-06T06:03:51.569Z,85.81
2022-11-06T06:10:11.632Z,85.95
2022-11-06T06:16:34.583Z,86.07
2022-11-06T06:22:54.571Z,86.19
2022-11-06T06:29:17.603Z,85.71
2022-11-06T06:35:37.571Z,86.27
2022-11-06T06:42:00.601Z,86.56
2022-11-06T06:48:20.598Z,86.52
2022-11-06T06:54:43.582Z,86.41
2022-11-06T07:01:03.701Z,86.41
2022-11-06T07:07:26.651Z,86.4
2022-11-06T07:13:46.596Z,86.4
2022-11-06T07:20:09.610Z,86.77
2022-11-06T07:26:29.608Z,86.72
2022-11-06T07:32:52.597Z,86.62
2022-11-06T07:39:12.618Z,86.45
2022-11-06T07:45:35.608Z,85.97
2022-11-06T07:51:55.593Z,85.46
2022-11-06T07:58:18.562Z,85
2022-11-06T08:04:38.633Z,84.7
2022-11-06T08:11:01.589Z,84.4
2022-11-06T08:17:21.568Z,83.9
2022-11-06T08:23:44.623Z,83.15
2022-11-06T08:30:04.603Z,82.54
2022-11-06T08:36:27.593Z,81.35
2022-11-06T08:42:47.600Z,80.62
2022-11-06T08:49:10.575Z,79.76
2022-11-06T08:55:30.895Z,79.61
2022-11-06T09:01:53.737Z,78.73
2022-11-06T09:08:13.578Z,77.86
2022-11-06T09:14:36.585Z,77.27
2022-11-06T09:20:56.637Z,75.32
2022-11-06T09:27:19.577Z,74.29
2022-11-06T09:51:01.517Z,72.95
2022-11-06T09:57:21.586Z,73.57
2022-11-06T10:03:44.577Z,72.67
2022-11-06T10:10:04.596Z,72.24
2022-11-06T10:16:27.587Z,71.42
2022-11-06T10:22:47.624Z,70.29
2022-11-06T10:29:10.606Z,71.03
2022-11-06T10:35:30.571Z,70.94
2022-11-06T10:41:53.587Z,71.46
2022-11-06T10:48:13.827Z,71.97
2022-11-06T10:54:36.580Z,71.34
2022-11-06T11:00:56.624Z,70.58
2022-11-06T11:07:21.722Z,71.25
2022-11-06T11:13:39.584Z,70.94
2022-11-06T11:20:02.571Z,70.83
2022-11-06T11:26:22.748Z,69.95
2022-11-06T11:32:45.573Z,69.97
2022-11-06T11:39:05.566Z,70.26
2022-11-06T11:45:28.618Z,69.78
2022-11-06T11:51:48.583Z,69.75
2022-11-06T11:58:11.857Z,66.95
2022-11-06T12:04:31.604Z,63.49
2022-11-06T12:10:54.574Z,59.42
2022-11-06T12:17:14.597Z,58.66
2022-11-06T12:23:37.587Z,57.61
2022-11-06T12:29:57.604Z,58.78
2022-11-06T12:36:20.596Z,59.94
2022-11-06T12:42:40.587Z,59.04
2022-11-06T12:49:03.626Z,60.4
2022-11-06T12:55:23.570Z,61.4
2022-11-06T13:01:46.868Z,62.45
2022-11-06T13:08:06.569Z,61.62
2022-11-06T13:14:29.567Z,62.49
2022-11-06T13:20:49.629Z,62.78
2022-11-06T13:27:12.580Z,62.42
2022-11-06T13:33:32.581Z,63.11
2022-11-06T13:39:55.592Z,63
2022-11-06T13:46:15.595Z,63.44
2022-11-06T13:52:38.566Z,63.83
2022-11-06T13:58:58.634Z,63.34
2022-11-06T14:05:21.585Z,64.25
2022-11-06T14:11:41.574Z,64.38
2022-11-06T14:18:04.633Z,64.2
2022-11-06T14:24:24.587Z,63.56
2022-11-06T14:37:07.701Z,64.17
2022-11-06T14:43:30.577Z,63.49
2022-11-06T14:49:50.591Z,62.41
2022-11-06T14:56:13.597Z,63.64
2022-11-06T15:02:33.754Z,61.02
2022-11-06T15:19:46.520Z,61.69
2022-11-06T15:26:06.563Z,61.54
2022-11-06T15:32:29.625Z,61.78
2022-11-06T15:38:49.610Z,62.73
2022-11-06T15:45:12.565Z,63.49
2022-11-06T15:51:32.576Z,64.37
2022-11-06T15:57:55.580Z,64.08
2022-11-06T16:04:16.160Z,65.05
2022-11-06T16:10:38.634Z,64.14
2022-11-06T16:16:58.702Z,64.64
2022-11-06T16:23:24.318Z,65.99
2022-11-06T16:29:41.569Z,69.38
2022-11-06T16:36:04.621Z,73.62
2022-11-06T16:42:24.649Z,73.38
2022-11-06T16:48:47.573Z,74.28
2022-11-06T16:55:09.434Z,73.12
2022-11-06T17:01:30.729Z,73.61
2022-11-06T17:07:50.559Z,73.97
2022-11-06T17:14:13.784Z,73.32
2022-11-06T17:20:33.599Z,74.54
2022-11-06T17:26:56.617Z,74.21
2022-11-06T17:33:17.099Z,74.36
2022-11-06T17:39:39.661Z,74.29
2022-11-06T17:45:59.583Z,74.74
2022-11-06T17:52:22.652Z,74.78
2022-11-06T17:58:42.625Z,75.31
2022-11-06T18:05:05.600Z,75.33
2022-11-06T18:11:25.608Z,75.21
2022-11-06T18:17:48.556Z,75
2022-11-06T18:24:08.613Z,74.48
2022-11-06T18:30:31.640Z,74.29
2022-11-06T18:36:51.583Z,73.77
2022-11-06T18:43:14.583Z,72.75
2022-11-06T18:49:34.596Z,72.34
2022-11-06T18:55:57.576Z,71.68
2022-11-06T19:02:17.689Z,69.92
2022-11-06T19:08:40.593Z,69.77
2022-11-06T19:15:00.641Z,69.02
2022-11-06T19:21:23.582Z,69.62
2022-11-06T19:27:43.615Z,69.37
2022-11-06T19:34:06.576Z,68.68
2022-11-06T19:40:26.580Z,68.62
2022-11-06T19:46:49.900Z,68.76
2022-11-06T19:53:09.553Z,68.66
2022-11-06T19:59:32.580Z,69.58
2022-11-06T20:05:52.642Z,69.39
2022-11-06T20:12:15.595Z,69.8
2022-11-06T20:28:40.594Z,71.3
2022-11-06T20:35:03.560Z,70.82
2022-11-06T20:41:23.571Z,71.73
2022-11-06T20:47:46.611Z,72.01
2022-11-06T20:54:06.562Z,72.42
2022-11-06T21:00:29.591Z,72.28
2022-11-06T21:06:49.685Z,72.4
2022-11-06T21:13:12.948Z,72.62
2022-11-06T21:19:32.571Z,72.8
2022-11-06T21:25:55.684Z,72.82
2022-11-06T21:32:15.581Z,72.95
2022-11-06T21:38:38.567Z,73.25
2022-11-06T21:44:58.625Z,73.88
2022-11-06T21:51:21.588Z,73.77
2022-11-06T21:57:41.549Z,73.97
2022-11-06T22:04:04.637Z,74.45
2022-11-06T22:10:24.571Z,74.7
2022-11-06T22:16:47.592Z,74.42
2022-11-06T22:23:07.587Z,74.67
2022-11-06T22:29:30.560Z,74.71
2022-11-06T22:35:50.599Z,74.74
2022-11-06T22:42:13.655Z,74.87
2022-11-06T22:48:33.555Z,74.95
2022-11-06T22:54:56.568Z,75.23
2022-11-06T23:20:27.610Z,77.33
2022-11-06T23:26:47.559Z,77.92
2022-11-06T23:33:10.617Z,78.46
2022-11-06T23:39:30.605Z,78.73
2022-11-06T23:45:53.612Z,78.86
2022-11-06T23:52:13.582Z,78.92
2022-11-06T23:58:36.613Z,78.88
